• Join FlightAware (Why Join?)
  • Login
  • US Flag 
12:07AM EDT


 

Airport Tracker/Info


-or-


 

Live Flight TrackerFlight Track Log ✈ AAY829 ✈ 30-Jul-2014 ✈ KGSP - KPIE

Flight Track Log - Related Links

Times and Time Zones

All times are in EDT time to prevent confusion due to time zone crossing. See the AAY829 flight status page for this flight to view local times or setup timezone preferences in your user account.

Time Position Orientation Groundspeed Altitude Reporting Facility
EDT Latitude Longitude Course Direction KTS MPH feet Rate Location/Type
04:10PM 34.8722 -82.0817 174° South 266 306 6,900  Level Atlanta Center
04:11PM 34.7950 -82.0811 180° South 240 276 9,900 2,220 Climbing Atlanta Center
04:12PM 34.7075 -82.0931 186° South 271 312 11,400 1,500 Climbing Atlanta Center
04:13PM 34.6033 -82.1083 187° South 336 387 13,000 1,980 Climbing Atlanta Center
04:14PM 34.2042 -82.2686 174° South  Level Estimated
04:14PM 34.4911 -82.1233 186° South 379 436 15,400  Level Atlanta Center
04:15PM 34.3744 -82.1386 186° South 411 473 17,600 1,920 Climbing Atlanta Center
04:16PM 34.2514 -82.1539 186° South 433 498 19,300 1,800 Climbing Atlanta Center
04:17PM 34.1244 -82.1719 187° South 451 519 21,200 1,800 Climbing Atlanta Center
04:18PM 33.9953 -82.1872 186° South 463 533 23,000 900 Climbing Atlanta Center
04:19PM 33.8642 -82.2050 186° South 473 544 23,000 300 Level Atlanta Center
04:20PM 33.7306 -82.2203 185° South 480 552 23,600 960 Climbing Atlanta Center
04:21PM 33.5975 -82.2406 187° South 480 552 25,000 1,140 Climbing Atlanta Center
04:22PM 33.4619 -82.2583 186° South 480 552 25,900 1,260 Climbing Atlanta Center
04:23PM 33.3328 -82.2761 187° South 480 552 27,600 1,740 Climbing Atlanta Center
04:24PM 33.2017 -82.2936 186° South 480 552 29,400 1,500 Climbing Atlanta Center
04:25PM 33.0725 -82.3111 186° South 480 552 30,700 900 Climbing Atlanta Center
04:27PM 32.8333 -82.3414 186° South 488 562 32,000 420 Climbing Jacksonville Center
04:28PM 32.7042 -82.3619 188° South 476 548 32,000  Level Jacksonville Center
04:29PM 32.5850 -82.3772 186° South 476 548 32,000  Level Jacksonville Center
04:30PM 32.4578 -82.3903 185° South 476 548 32,000  Level Jacksonville Center
04:31PM 32.3139 -82.4083 186° South 476 548 32,000  Level Jacksonville Center
04:32PM 32.1867 -82.4236 186° South 476 548 32,000  Level Jacksonville Center
04:33PM 32.0572 -82.4417 187° South 476 548 32,000  Level Jacksonville Center
04:34PM 31.9258 -82.4592 186° South 476 548 32,000  Level Jacksonville Center
04:35PM 31.8006 -82.4744 186° South 470 541 32,000  Level Jacksonville Center
04:36PM 31.6689 -82.4922 187° South 470 541 32,000  Level Jacksonville Center
04:37PM 31.5375 -82.5075 186° South 470 541 32,000  Level Jacksonville Center
04:38PM 31.4081 -82.5153 183° South 475 547 32,000  Level Jacksonville Center
04:39PM 31.2892 -82.5231 183° South 475 547 32,000  Level Jacksonville Center
04:40PM 31.1597 -82.5308 183° South 475 547 32,000  Level Jacksonville Center
04:41PM 31.0261 -82.5339 181° South 480 552 32,000  Level Jacksonville Center
04:42PM 30.8967 -82.5392 182° South 480 552 32,000  Level Jacksonville Center
04:43PM 30.7672 -82.5444 182° South 480 552 32,000  Level Jacksonville Center
04:44PM 30.6336 -82.5497 182° South 480 552 32,000  Level Jacksonville Center
04:45PM 30.5042 -82.5550 182° South 475 547 32,000  Level Jacksonville Center
04:46PM 30.3767 -82.5314 171° South 475 547 32,000  Level Jacksonville Center
04:47PM 30.2325 -82.4958 168° South 480 552 32,000  Level Jacksonville Center
04:48PM 30.1031 -82.4700 170° South 480 552 32,000 -120 Level Jacksonville Center
04:49PM 29.9733 -82.4369 168° South 480 552 31,800 -1,200 Descending Jacksonville Center
04:50PM 29.8439 -82.4114 170° South 480 552 29,700 -2,400 Descending Jacksonville Center
04:51PM 29.7103 -82.3833 170° South 480 552 27,100 -1,500 Descending Jacksonville Center
04:52PM 29.5786 -82.3578 170° South 487 560 26,800 -1,200 Descending Jacksonville Center
04:53PM 29.4428 -82.3417 174° South 487 560 24,700 -1,920 Descending Jacksonville Center
04:54PM 29.3092 -82.3258 174° South 481 554 23,000 -900 Descending Jacksonville Center
04:55PM 29.1922 -82.3122 174° South 481 554 22,900 -1,920 Descending Jacksonville Center
04:56PM 29.0689 -82.2986 174° South 470 541 19,200 -4,980 Descending Jacksonville Center
04:57PM 28.9500 -82.2828 173° South 449 517 13,000 -3,180 Descending Jacksonville Center
04:58PM 28.8392 -82.2717 175° South 427 491 12,900 -120 Descending Jacksonville Center
05:00PM 28.6542 -82.2561 176° South 314 361 12,700 -360 Descending Miami Center
05:01PM 28.5767 -82.2839 197° South 315 362 12,000 -600 Descending Miami Center
05:02PM 28.5478 -82.3833 252° West 338 389 11,500 -660 Descending Miami Center
05:03PM 28.5186 -82.4975 254° West 370 426 10,700 -780 Descending Miami Center
05:04PM 28.4875 -82.6108 253° West 376 433 9,900 -360 Descending Miami Center
05:05PM 28.4092 -82.7131 229° Southwest 382 440 10,000 -180 Climbing Miami Center
05:06PM 28.3228 -82.7592 205° Southwest 348 400 9,600 -1,260 Descending Miami Center
05:07PM 28.2500 -82.8000 206° Southwest 267 307 7,500 -2,340 Descending Tampa TRACON
05:08PM 28.1667 -82.8333 199° South 263 303 5,000 -1,260 Descending Tampa TRACON
05:09PM 28.1000 -82.8667 204° Southwest 270 311 5,000  Level Tampa TRACON
05:10PM 28.0333 -82.9000 204° Southwest 275 316 5,000 -720 Level Tampa TRACON
05:11PM 27.9667 -82.8667 156° South 274 315 3,600 -1,200 Descending Tampa TRACON
05:12PM 27.9000 -82.8167 146° Southeast 258 297 2,600 -840 Descending Tampa TRACON
05:13PM 27.8667 -82.7667 127° Southeast 218 251 2,000 -600 Descending Tampa TRACON
05:14PM 27.8333 -82.7167 127° Southeast 211 243 1,400 -660 Descending Tampa TRACON
05:15PM 27.8667 -82.6833 41° Northeast 145 167 700 -720 Descending Tampa TRACON